Meath Environmental Platform

Observations for Trim Market St

Time AQI Temp °C Hum % Pres Pa CO μg/m³ H₂S μg/m³ NO μg/m³ NO₂ μg/m³ O₃ μg/m³ SO₂ μg/m³ PM1 μg/m³ PM2.5 μg/m³ PM10 μg/m³
Sunday 23 August 2026
11:15 2 22.5 41 65,458 0.03 0 1.37 5.92 69.01 0 0 2.86 3.14
11:13 2 22.5 41 65,433 0.12 0 1.62 6.75 69.62 0 0 2.83 3.12
11:12 2 22.4 41 65,456 0.11 0 1.54 6.5 69.28 0 0 2.31 2.54
11:09 2 22.4 41 65,439 0.17 0 1.49 11.73 62.63 0 0 2.83 3.11
11:01 2 22.2 42 65,427 0.14 0 1.58 6.43 66.99 0 0 2.27 2.5
11:00 2 22.2 42 65,421 0.16 0 1.65 6.78 66.19 0 0 2.27 2.5
10:59 2 22.1 42 65,439 0.13 0 1.72 6.26 68.45 0 0 3.31 3.57
10:57 2 22.1 42 65,392 0.13 0 1.77 6.45 68.32 0 0 2.77 3.05
10:56 2 22.1 43 65,402 0.1 0 1.78 6.47 67.36 0 0 2.77 2.79
10:55 2 22.1 43 65,380 0.28 0 1.78 4.99 61.65 0 0 2.77 3.04
10:52 2 22 42 65,398 0.21 0 1.55 4.92 64.53 0 0 2.77 3.05
10:51 2 22 42 65,410 0.15 0 1.54 6.27 67.68 0 0 2.25 2.47
10:50 2 21.9 43 65,396 0.2 0 1.52 5.46 66.63 0 0 2.24 2.8
10:48 2 21.9 43 65,380 0.19 0 1.56 6.4 67.12 0 0.71 3.79 4.17
10:45 2 21.8 44 65,354 0.23 0 1.48 2.76 56.18 0 0 2.72 2.99
10:44 2 21.7 44 65,350 0.25 0 1.49 6.02 66.85 0 0 2.72 2.99
10:41 2 21.6 44 65,333 0.34 0 1.59 8.94 60.63 0 0 3.22 4.41
10:38 2 21.4 45 65,242 0.23 0 1.57 4.93 57.97 0 0 2.13 2.34
10:30 2 20.8 48 64,925 0.3 0 1.65 4.76 53.49 0 0 2.56 2.81
10:29 2 20.7 48 64,813 0.42 0 1.66 7.33 55.82 0 0 2.03 2.23